Time;durP1;ratioP1;P1;durP2;ratioP2;P2;SDS_P1;SDS_P2;PMS_P1;PMS_P2;Temp;Humidity;BMP_temperature;BMP_pressure;BME280_temperature;BME280_humidity;BME280_pressure;Samples;Min_cycle;Max_cycle;Signal;HPM_P1;HPM_P2
2022/12/10 00:00:18;;;;;;;66.20;28.92;;;;;;;-1.95;89.32;99477.59;5029143;28;20065;-67
2022/12/10 00:02:43;;;;;;;62.63;30.02;;;;;;;-1.96;88.57;99475.88;5038931;28;20069;-67
2022/12/10 00:05:09;;;;;;;63.30;27.45;;;;;;;-1.97;89.52;99484.28;5037881;28;20029;-67
2022/12/10 00:07:34;;;;;;;64.43;27.88;;;;;;;-1.83;89.08;99488.88;5029871;28;20025;-67
2022/12/10 00:10:00;;;;;;;62.60;29.50;;;;;;;-1.85;88.82;99480.34;5038827;28;20080;-69
2022/12/10 00:12:26;;;;;;;57.22;26.00;;;;;;;-1.72;88.41;99492.56;5045053;28;20029;-69
2022/12/10 00:14:51;;;;;;;63.97;29.52;;;;;;;-1.65;89.07;99489.34;5031704;28;20060;-68
2022/12/10 00:17:17;;;;;;;58.95;28.45;;;;;;;-1.63;88.84;99497.00;5035488;28;20368;-66
2022/12/10 00:19:42;;;;;;;53.55;26.58;;;;;;;-1.60;88.12;99495.38;5041527;28;20034;-66
2022/12/10 00:22:08;;;;;;;52.88;26.40;;;;;;;-1.60;87.58;99482.66;5026075;28;20033;-66
2022/12/10 00:24:35;;;;;;;58.97;27.42;;;;;;;-1.76;88.07;99488.22;5044232;28;20069;-67
2022/12/10 00:27:01;;;;;;;59.35;26.17;;;;;;;-1.70;88.91;99490.91;5041135;28;20049;-66
2022/12/10 00:29:27;;;;;;;51.83;26.20;;;;;;;-1.65;89.24;99499.50;5035381;28;20034;-66
2022/12/10 00:31:52;;;;;;;56.53;26.92;;;;;;;-1.67;89.20;99496.03;5028772;28;20301;-67
2022/12/10 00:34:18;;;;;;;50.17;24.17;;;;;;;-1.66;88.03;99492.69;5026805;28;20026;-65
2022/12/10 00:36:46;;;;;;;60.35;27.45;;;;;;;-1.66;88.58;99486.75;5045824;28;20245;-66
2022/12/10 00:39:19;;;;;;;66.97;28.58;;;;;;;-1.80;88.42;99481.34;5028943;28;20045;-66
2022/12/10 00:41:44;;;;;;;68.40;30.67;;;;;;;-1.96;89.51;99473.34;5038236;28;20025;-66
2022/12/10 00:44:10;;;;;;;65.75;30.27;;;;;;;-2.03;90.42;99466.38;5037253;28;20026;-66
2022/12/10 00:46:36;;;;;;;67.32;29.92;;;;;;;-2.25;91.02;99470.06;5028857;28;20045;-66
2022/12/10 00:49:02;;;;;;;75.10;30.13;;;;;;;-2.09;91.76;99463.72;5045432;28;20573;-67
2022/12/10 00:51:28;;;;;;;72.43;31.58;;;;;;;-2.16;91.49;99464.38;5026563;28;20042;-66
2022/12/10 00:53:55;;;;;;;80.32;31.15;;;;;;;-2.04;90.68;99467.19;5039140;28;20420;-66
2022/12/10 00:56:24;;;;;;;80.35;32.25;;;;;;;-2.19;91.15;99451.59;5041230;28;20029;-66
2022/12/10 00:58:51;;;;;;;82.25;33.83;;;;;;;-2.05;91.44;99467.16;5044912;28;20375;-66
2022/12/10 01:01:32;;;;;;;90.00;35.30;;;;;;;-2.28;90.45;99424.31;5044494;28;20029;-66
2022/12/10 01:04:01;;;;;;;89.43;34.42;;;;;;;-2.08;90.66;99460.34;5025214;28;20030;-67
2022/12/10 01:06:32;;;;;;;73.38;33.08;;;;;;;-1.96;90.89;99449.66;5025229;28;20076;-68
2022/12/10 01:09:01;;;;;;;77.20;33.88;;;;;;;-1.97;90.45;99458.91;5038210;28;20214;-69
2022/12/10 01:11:32;;;;;;;76.40;33.40;;;;;;;-2.19;90.90;99437.25;5034864;28;20408;-68
2022/12/10 01:13:58;;;;;;;89.40;35.10;;;;;;;-2.07;91.19;99449.38;5025062;28;20053;-67
2022/12/10 01:16:25;;;;;;;83.25;32.05;;;;;;;-2.27;91.71;99431.09;5024877;28;20042;-69
2022/12/10 01:18:54;;;;;;;93.60;34.88;;;;;;;-2.49;91.71;99404.34;5025039;28;20033;-66
2022/12/10 01:21:20;;;;;;;84.72;34.35;;;;;;;-2.23;91.80;99437.97;5041675;28;20021;-66
2022/12/10 01:23:48;;;;;;;91.28;33.90;;;;;;;-2.35;91.41;99419.91;5032171;28;20033;-66
2022/12/10 01:26:17;;;;;;;92.03;36.15;;;;;;;-2.26;91.73;99417.63;5031705;28;20068;-66
2022/12/10 01:28:43;;;;;;;90.18;34.60;;;;;;;-2.09;91.58;99433.25;5044488;28;20246;-65
2022/12/10 01:31:12;;;;;;;73.25;31.92;;;;;;;-2.12;91.82;99415.44;5044593;28;20037;-67
2022/12/10 01:33:39;;;;;;;80.07;33.28;;;;;;;-2.09;91.63;99420.59;5024894;28;20029;-67
2022/12/10 01:36:08;;;;;;;83.47;34.40;;;;;;;-2.17;90.65;99404.31;5024650;28;20030;-66
2022/12/10 01:38:34;;;;;;;83.40;33.60;;;;;;;-2.15;91.07;99428.00;5035729;28;20088;-66
2022/12/10 01:41:00;;;;;;;88.65;35.42;;;;;;;-2.16;91.54;99433.94;5037097;28;20029;-65
2022/12/10 01:43:27;;;;;;;76.03;31.10;;;;;;;-2.02;91.64;99437.66;5025931;28;20099;-65
2022/12/10 01:45:53;;;;;;;79.43;32.70;;;;;;;-1.99;90.25;99442.81;5044241;28;20025;-66
2022/12/10 01:48:19;;;;;;;75.65;33.25;;;;;;;-1.96;90.97;99430.19;5027400;28;20100;-66
2022/12/10 01:50:45;;;;;;;87.00;32.63;;;;;;;-2.12;90.14;99433.19;5024244;28;20302;-66
2022/12/10 01:53:12;;;;;;;75.07;32.38;;;;;;;-2.08;91.34;99425.69;5024235;28;20022;-67
2022/12/10 01:55:45;;;;;;;76.00;32.58;;;;;;;-2.09;90.78;99400.28;5027391;28;20044;-68
2022/12/10 01:58:12;;;;;;;73.93;30.42;;;;;;;-1.96;90.21;99422.59;5044039;28;20029;-67
2022/12/10 02:00:46;;;;;;;60.85;30.40;;;;;;;-1.84;90.63;99444.91;5024479;28;20026;-68
2022/12/10 02:03:23;;;;;;;62.10;29.92;;;;;;;-2.09;90.12;99426.50;5039500;28;20048;-67
2022/12/10 02:06:03;;;;;;;66.03;28.35;;;;;;;-2.26;90.60;99421.00;5031130;28;20026;-68
2022/12/10 02:08:46;;;;;;;72.25;28.67;;;;;;;-2.09;90.92;99431.56;5034089;28;20029;-66
2022/12/10 02:11:25;;;;;;;66.43;29.30;;;;;;;-2.45;90.00;99365.59;5034412;28;20029;-67
2022/12/10 02:13:58;;;;;;;63.70;29.05;;;;;;;-2.23;89.61;99434.59;5038216;28;20338;-65
2022/12/10 02:16:32;;;;;;;66.00;30.38;;;;;;;-2.42;91.50;99423.97;5041680;28;20233;-68
2022/12/10 02:19:02;;;;;;;67.68;28.58;;;;;;;-2.22;90.74;99433.75;5027269;28;20041;-66
2022/12/10 02:21:36;;;;;;;57.67;27.70;;;;;;;-2.16;90.87;99419.56;5035771;28;20222;-67
2022/12/10 02:24:07;;;;;;;58.85;26.25;;;;;;;-2.03;89.82;99428.34;5037809;28;20037;-66
2022/12/10 02:26:41;;;;;;;61.20;28.77;;;;;;;-1.91;89.48;99448.06;5033417;28;20033;-67
2022/12/10 02:29:16;;;;;;;68.97;29.65;;;;;;;-1.92;90.14;99447.22;5023899;28;20034;-68
2022/12/10 02:31:48;;;;;;;67.25;29.00;;;;;;;-2.46;89.59;99409.50;5025754;28;20108;-67
2022/12/10 02:34:16;;;;;;;66.57;31.27;;;;;;;-2.11;89.70;99437.41;5023810;28;20018;-66
2022/12/10 02:36:45;;;;;;;71.70;30.60;;;;;;;-2.16;89.26;99416.19;5023599;28;20036;-66
2022/12/10 02:39:16;;;;;;;63.08;29.58;;;;;;;-1.95;89.24;99437.00;5038916;28;20131;-66
2022/12/10 02:41:47;;;;;;;69.55;29.30;;;;;;;-2.00;89.20;99422.47;5032081;28;20033;-67
2022/12/10 02:44:16;;;;;;;68.50;29.83;;;;;;;-2.29;90.31;99425.16;5030632;28;20025;-67
2022/12/10 02:46:45;;;;;;;73.07;31.25;;;;;;;-2.37;91.14;99386.91;5040094;28;20105;-68
2022/12/10 02:49:13;;;;;;;82.32;33.25;;;;;;;-2.23;90.40;99414.31;5023336;28;20206;-67
2022/12/10 02:51:39;;;;;;;72.93;32.63;;;;;;;-2.23;90.02;99426.97;5023319;28;20041;-67
2022/12/10 02:54:26;;;;;;;75.07;32.22;;;;;;;-2.20;90.42;99389.84;5037547;28;20084;-67
2022/12/10 02:57:00;;;;;;;81.25;33.97;;;;;;;-2.11;89.65;99419.66;5030308;28;20140;-66
2022/12/10 02:59:33;;;;;;;76.35;33.03;;;;;;;-2.29;90.35;99389.66;5032224;28;20194;-66
2022/12/10 03:02:25;;;;;;;74.15;34.08;;;;;;;-2.29;90.80;99390.50;5037608;28;20126;-67
2022/12/10 03:04:53;;;;;;;;;;;;;;;-2.13;89.97;99406.94;5027783;28;20028;-66
2022/12/10 03:07:32;;;;;;;82.20;34.85;;;;;;;-2.24;90.44;99403.28;5043201;28;19980;-66
2022/12/10 03:10:21;;;;;;;78.68;34.58;;;;;;;-2.27;90.06;99388.88;5029544;28;20023;-67
2022/12/10 03:12:57;;;;;;;75.45;35.22;;;;;;;-2.36;90.46;99387.78;5023339;28;20080;-67
2022/12/10 03:15:25;;;;;;;77.00;34.92;;;;;;;-2.37;90.23;99381.81;5023151;28;20164;-67
2022/12/10 03:17:51;;;;;;;83.90;35.20;;;;;;;-2.14;89.92;99406.91;5035130;28;20033;-66
2022/12/10 03:20:17;;;;;;;86.22;37.40;;;;;;;-1.99;90.09;99404.75;5035362;28;20030;-66
2022/12/10 03:22:47;;;;;;;71.80;33.53;;;;;;;-2.15;90.50;99401.00;5036076;28;20095;-66
2022/12/10 03:25:18;;;;;;;84.13;34.92;;;;;;;-2.16;90.09;99385.75;5024680;28;20036;-67
2022/12/10 03:27:49;;;;;;;79.18;34.65;;;;;;;-2.24;90.18;99385.53;5027119;28;20026;-66
2022/12/10 03:30:15;;;;;;;71.40;31.67;;;;;;;-1.89;89.94;99399.91;5042622;28;20036;-66
2022/12/10 03:32:43;;;;;;;78.97;33.38;;;;;;;-1.82;89.69;99399.25;5045145;28;20064;-66
2022/12/10 03:35:10;;;;;;;71.75;32.83;;;;;;;-1.75;89.61;99386.72;5040606;28;20026;-66
2022/12/10 03:37:36;;;;;;;80.45;33.78;;;;;;;-1.70;88.84;99398.66;5028658;28;20030;-65
2022/12/10 03:40:04;;;;;;;78.00;33.05;;;;;;;-1.86;88.93;99378.00;5046774;28;20037;-65
2022/12/10 03:42:30;;;;;;;76.75;34.60;;;;;;;-1.76;88.08;99397.69;5029262;28;20049;-66
2022/12/10 03:44:55;;;;;;;74.25;34.70;;;;;;;-1.70;88.94;99389.34;5034487;28;20032;-67
2022/12/10 03:47:22;;;;;;;74.47;34.30;;;;;;;-1.78;88.58;99406.09;5026699;28;20022;-66
2022/12/10 03:49:47;;;;;;;73.45;34.35;;;;;;;-1.91;88.60;99405.81;5030022;28;20434;-67
2022/12/10 03:52:13;;;;;;;76.68;34.83;;;;;;;-2.02;88.92;99404.69;5046436;28;20021;-67
2022/12/10 03:54:38;;;;;;;73.53;33.63;;;;;;;-2.09;89.92;99412.97;5027795;28;20021;-66
2022/12/10 03:57:04;;;;;;;65.53;32.38;;;;;;;-1.99;90.42;99402.22;5040264;28;20021;-67
2022/12/10 03:59:30;;;;;;;61.72;31.30;;;;;;;-2.16;89.35;99406.03;5046538;28;20325;-67
2022/12/10 04:01:55;;;;;;;74.22;34.28;;;;;;;-1.93;90.13;99409.97;5041761;28;20022;-67
2022/12/10 04:04:21;;;;;;;71.40;34.95;;;;;;;-1.87;89.73;99408.41;5026436;28;20133;-68
2022/12/10 04:06:47;;;;;;;71.65;34.97;;;;;;;-1.85;89.51;99415.25;5026208;28;20318;-67
2022/12/10 04:09:14;;;;;;;64.05;35.88;;;;;;;-1.91;89.00;99395.66;5040047;28;20029;-66
2022/12/10 04:11:40;;;;;;;69.38;34.83;;;;;;;-1.83;89.86;99410.22;5033957;28;20337;-68
2022/12/10 04:16:51;;;;;;;83.75;40.17;;;;;;;-1.95;89.85;99413.31;5029334;28;20033;-66
2022/12/10 04:19:18;;;;;;;76.43;36.75;;;;;;;-1.91;89.89;99407.47;5045977;28;20092;-66
2022/12/10 04:27:17;;;;;;;85.07;40.17;;;;;;;-1.98;89.48;99406.47;5026316;28;20034;-65
2022/12/10 04:29:43;;;;;;;74.25;37.63;;;;;;;-2.05;89.72;99409.69;5025731;28;20089;-65
2022/12/10 04:32:09;;;;;;;75.82;39.00;;;;;;;-2.01;90.48;99410.59;5034464;28;20030;-64
2022/12/10 04:34:35;;;;;;;76.30;37.50;;;;;;;-1.88;90.46;99405.03;5044060;28;20334;-65
2022/12/10 04:37:02;;;;;;;77.07;40.70;;;;;;;-1.89;89.08;99412.63;5024788;28;20052;-65
2022/12/10 04:39:28;;;;;;;70.63;36.95;;;;;;;-1.76;89.05;99412.06;5028982;28;20330;-66
2022/12/10 04:41:54;;;;;;;77.25;39.67;;;;;;;-1.75;89.04;99408.72;5028493;28;20022;-65
2022/12/10 04:44:20;;;;;;;74.70;35.88;;;;;;;-1.77;89.38;99410.34;5038122;28;20032;-67
2022/12/10 04:46:47;;;;;;;81.72;39.65;;;;;;;-1.77;88.74;99398.53;5030408;28;20029;-65
2022/12/10 04:49:13;;;;;;;83.72;39.20;;;;;;;-1.93;90.19;99404.06;5032419;28;20038;-67
2022/12/10 04:51:39;;;;;;;77.80;38.42;;;;;;;-1.89;89.31;99400.78;5031916;28;20037;-67
2022/12/10 04:54:05;;;;;;;89.38;41.47;;;;;;;-1.91;89.55;99412.53;5033608;28;20029;-67
2022/12/10 04:56:31;;;;;;;83.43;39.35;;;;;;;-2.00;90.15;99410.66;5032382;28;20060;-67
2022/12/10 04:58:58;;;;;;;86.68;40.47;;;;;;;-1.93;90.10;99404.91;5032958;28;20057;-67
2022/12/10 05:01:24;;;;;;;81.78;39.22;;;;;;;-1.78;89.97;99413.69;5031347;28;20041;-67
2022/12/10 05:03:50;;;;;;;83.78;40.05;;;;;;;-1.87;90.84;99421.94;5025206;28;20030;-68
2022/12/10 05:06:17;;;;;;;90.53;40.17;;;;;;;-1.82;90.19;99419.53;5032570;28;20033;-67
2022/12/10 05:08:43;;;;;;;89.72;38.95;;;;;;;-2.12;90.33;99415.44;5034733;28;20384;-66
2022/12/10 05:11:12;;;;;;;88.72;40.00;;;;;;;-2.14;91.01;99389.16;5030324;28;20040;-66
2022/12/10 05:13:38;;;;;;;82.38;39.03;;;;;;;-1.98;91.01;99405.59;5043782;28;20049;-66
2022/12/10 05:16:06;;;;;;;84.30;39.72;;;;;;;-1.93;90.50;99409.13;5024465;28;20053;-66
2022/12/10 05:18:32;;;;;;;88.25;38.70;;;;;;;-1.97;91.06;99400.56;5024635;28;20026;-67
2022/12/10 05:21:03;;;;;;;74.57;35.63;;;;;;;-1.91;90.51;99377.91;5034909;28;20316;-66
2022/12/10 05:23:29;;;;;;;86.32;38.72;;;;;;;-1.95;91.40;99396.41;5032687;28;20093;-67
2022/12/10 05:26:22;;;;;;;78.30;38.83;;;;;;;-1.96;91.53;99402.28;5040903;28;20088;-67
2022/12/10 05:28:51;;;;;;;81.93;36.42;;;;;;;-2.16;91.78;99399.25;5026146;28;20038;-66
2022/12/10 05:31:25;;;;;;;86.03;38.22;;;;;;;-1.94;91.27;99405.75;5044491;28;20044;-67
2022/12/10 05:33:52;;;;;;;91.50;40.30;;;;;;;-1.88;90.82;99412.66;5025138;28;20032;-67
2022/12/10 05:36:20;;;;;;;88.47;37.47;;;;;;;-1.99;90.03;99394.63;5024382;28;20030;-66
2022/12/10 05:38:47;;;;;;;81.55;37.97;;;;;;;-2.18;91.31;99410.19;5034606;28;20041;-65
2022/12/10 05:41:18;;;;;;;87.68;37.42;;;;;;;-2.14;91.51;99400.19;5043914;28;20033;-66
2022/12/10 05:43:44;;;;;;;;;;;;;;;-2.05;91.37;99403.75;5042281;28;20355;-66
2022/12/10 05:46:13;;;;;;;86.05;37.38;;;;;;;-2.20;91.67;99389.84;5024451;28;19917;-66
2022/12/10 05:48:39;;;;;;;85.28;38.38;;;;;;;-1.95;91.40;99406.56;5023007;28;20065;-65
2022/12/10 05:51:07;;;;;;;82.20;36.95;;;;;;;-1.78;91.35;99416.22;5036870;28;20025;-66
2022/12/10 05:53:32;;;;;;;85.80;37.17;;;;;;;-1.92;90.97;99406.63;5035635;28;20275;-66
2022/12/10 05:56:04;;;;;;;87.32;37.80;;;;;;;-1.79;90.08;99394.25;5042899;28;20025;-65
2022/12/10 05:58:30;;;;;;;93.07;40.25;;;;;;;-1.71;89.25;99405.44;5043782;28;20029;-65
2022/12/10 06:00:57;;;;;;;88.80;37.63;;;;;;;-1.77;90.02;99415.41;5024107;28;20025;-67
2022/12/10 06:03:25;;;;;;;84.13;38.75;;;;;;;-1.75;90.79;99408.72;5026935;28;20030;-65
2022/12/10 06:05:51;;;;;;;86.25;40.38;;;;;;;-1.88;91.22;99405.03;5034557;28;20033;-66
2022/12/10 06:08:17;;;;;;;101.60;40.58;;;;;;;-2.12;92.20;99390.06;5031481;28;20337;-67
2022/12/10 06:10:42;;;;;;;96.63;41.38;;;;;;;-2.08;92.27;99374.09;5029280;28;20045;-66
2022/12/10 06:13:08;;;;;;;90.30;39.70;;;;;;;-1.78;91.62;99395.94;5023798;28;20238;-67
2022/12/10 06:15:34;;;;;;;90.63;39.55;;;;;;;-1.78;90.56;99395.94;5023956;28;20061;-67
2022/12/10 06:17:59;;;;;;;102.68;41.75;;;;;;;-1.68;90.44;99405.50;5035439;28;20328;-66
2022/12/10 06:20:25;;;;;;;103.63;41.22;;;;;;;-1.65;89.67;99397.94;5036409;28;20049;-67
2022/12/10 06:22:52;;;;;;;94.28;41.10;;;;;;;-1.81;89.88;99393.31;5035962;28;20097;-68
2022/12/10 06:25:18;;;;;;;105.10;43.80;;;;;;;-1.87;91.15;99388.13;5031620;28;20250;-67
2022/12/10 06:27:44;;;;;;;96.75;41.63;;;;;;;-1.62;90.02;99392.09;5025335;28;20041;-65
2022/12/10 06:30:10;;;;;;;108.18;43.80;;;;;;;-1.92;90.50;99368.56;5023439;28;20034;-66
2022/12/10 06:32:36;;;;;;;102.60;44.60;;;;;;;-1.90;90.57;99393.97;5026930;28;20021;-67
2022/12/10 06:35:03;;;;;;;93.35;41.60;;;;;;;-1.99;91.83;99389.53;5023069;28;20037;-66
2022/12/10 06:37:28;;;;;;;96.57;42.60;;;;;;;-1.95;91.34;99380.34;5023464;28;20202;-66
2022/12/10 06:39:54;;;;;;;109.63;43.53;;;;;;;-1.88;91.10;99376.25;5042220;28;20056;-67
2022/12/10 06:42:20;;;;;;;103.63;42.80;;;;;;;-1.76;91.31;99376.53;5028941;28;20028;-66
2022/12/10 06:44:46;;;;;;;95.10;40.40;;;;;;;-1.77;91.27;99375.69;5032325;28;20052;-65
2022/12/10 06:47:12;;;;;;;89.22;39.70;;;;;;;-1.59;91.52;99370.16;5041659;28;20025;-66
2022/12/10 06:49:38;;;;;;;95.68;40.50;;;;;;;-1.65;90.19;99370.03;5043145;28;20084;-66
2022/12/10 06:52:04;;;;;;;92.88;38.92;;;;;;;-1.67;90.44;99376.72;5042879;28;20029;-67
2022/12/10 06:54:30;;;;;;;84.18;36.63;;;;;;;-1.87;91.03;99363.59;5027375;28;20090;-65
2022/12/10 06:56:56;;;;;;;82.28;35.80;;;;;;;-1.62;91.47;99390.41;5033902;28;20041;-66
2022/12/10 06:59:22;;;;;;;77.55;35.58;;;;;;;-1.46;90.19;99381.44;5039165;28;20067;-66
2022/12/10 07:01:48;;;;;;;80.80;34.15;;;;;;;-1.32;90.15;99393.59;5039810;28;20198;-66
2022/12/10 07:04:13;;;;;;;81.55;35.58;;;;;;;-1.46;90.60;99380.59;5022942;28;20021;-65
2022/12/10 07:06:39;;;;;;;82.22;36.00;;;;;;;-1.34;90.55;99387.59;5039476;28;20034;-66
2022/12/10 07:09:05;;;;;;;80.50;35.67;;;;;;;-1.27;90.06;99392.88;5030617;28;20183;-64
2022/12/10 07:11:31;;;;;;;83.80;34.97;;;;;;;-1.34;89.82;99390.16;5030299;28;20036;-66
2022/12/10 07:13:57;;;;;;;77.25;33.75;;;;;;;-1.56;90.70;99349.06;5039663;28;20021;-65
2022/12/10 07:16:29;;;;;;;76.93;32.78;;;;;;;-1.34;89.77;99370.72;5022494;28;20124;-66
2022/12/10 07:18:55;;;;;;;;;;;;;;;-1.38;90.72;99386.69;5041858;28;20034;-65
2022/12/10 07:21:23;;;;;;;83.50;34.65;;;;;;;-1.33;90.31;99402.88;5033024;28;19913;-67
2022/12/10 07:23:50;;;;;;;75.82;34.00;;;;;;;-1.49;90.44;99380.53;5032481;28;20144;-67
2022/12/10 07:26:16;;;;;;;76.28;34.13;;;;;;;-1.42;90.71;99397.63;5022377;28;20030;-68
2022/12/10 07:28:42;;;;;;;85.70;34.70;;;;;;;-1.47;90.36;99378.88;5022266;28;20400;-66
2022/12/10 07:31:09;;;;;;;78.68;33.35;;;;;;;-1.49;90.55;99396.59;5024336;28;20044;-65
2022/12/10 07:33:35;;;;;;;88.03;35.30;;;;;;;-1.39;90.48;99392.59;5025627;28;20030;-65
2022/12/10 07:36:10;;;;;;;81.00;34.08;;;;;;;-1.34;90.11;99370.72;5022637;28;20109;-65
2022/12/10 07:38:36;;;;;;;80.15;33.42;;;;;;;-1.32;90.74;99389.38;5025997;28;20037;-65
2022/12/10 07:41:11;;;;;;;78.68;32.30;;;;;;;-1.33;91.20;99385.09;5027452;28;20053;-68
2022/12/10 07:43:39;;;;;;;74.50;31.00;;;;;;;-1.60;91.57;99381.13;5022507;28;20030;-66
2022/12/10 07:46:10;;;;;;;77.63;30.67;;;;;;;-1.67;91.89;99380.97;5023447;28;20040;-65
2022/12/10 07:48:37;;;;;;;81.72;33.38;;;;;;;-1.60;91.82;99390.44;5027963;28;20029;-65
2022/12/10 07:51:03;;;;;;;81.15;32.60;;;;;;;-1.47;91.96;99378.88;5027472;28;20076;-68
2022/12/10 07:53:29;;;;;;;74.25;30.67;;;;;;;-1.44;92.22;99379.81;5031576;28;20057;-66
2022/12/10 07:55:55;;;;;;;77.82;32.67;;;;;;;-1.35;91.30;99378.25;5031951;28;20199;-66
2022/12/10 07:58:20;;;;;;;79.15;33.13;;;;;;;-1.23;91.00;99376.00;5023568;28;20032;-66
2022/12/10 08:00:46;;;;;;;87.05;32.53;;;;;;;-1.30;91.52;99375.00;5028871;28;20105;-66
2022/12/10 08:03:11;;;;;;;78.68;32.88;;;;;;;-1.25;91.47;99368.34;5040055;28;20369;-65
2022/12/10 08:05:37;;;;;;;82.45;33.80;;;;;;;-1.24;91.23;99366.66;5034457;28;20026;-66
2022/12/10 08:08:03;;;;;;;73.47;33.67;;;;;;;-1.09;91.19;99374.59;5022435;28;20022;-67
2022/12/10 08:10:29;;;;;;;78.78;33.38;;;;;;;-1.02;91.02;99364.56;5022049;28;20022;-66
2022/12/10 08:12:54;;;;;;;78.50;32.45;;;;;;;-0.84;90.74;99376.78;5025126;28;20033;-65
2022/12/10 08:15:20;;;;;;;78.63;32.10;;;;;;;-0.90;89.31;99364.78;5039452;28;20043;-67
2022/12/10 08:17:46;;;;;;;80.90;33.22;;;;;;;-0.89;90.13;99361.44;5039197;28;20056;-67
2022/12/10 08:20:11;;;;;;;80.88;32.97;;;;;;;-0.84;89.62;99364.94;5041116;28;20341;-66
2022/12/10 08:22:38;;;;;;;70.93;32.42;;;;;;;-0.76;89.56;99365.91;5028100;28;20022;-65
2022/12/10 08:25:03;;;;;;;72.18;32.42;;;;;;;-0.65;89.98;99367.81;5026663;28;20157;-66
2022/12/10 08:27:29;;;;;;;69.20;29.95;;;;;;;-0.62;88.93;99373.81;5025825;28;20329;-66
2022/12/10 08:29:55;;;;;;;79.05;32.97;;;;;;;-0.66;88.77;99372.03;5034500;28;20021;-65
2022/12/10 08:32:20;;;;;;;71.05;32.08;;;;;;;-0.60;89.13;99371.28;5044439;28;20033;-65
2022/12/10 08:34:46;;;;;;;69.45;30.77;;;;;;;-0.52;89.69;99379.94;5036083;28;20045;-64
2022/12/10 08:37:11;;;;;;;61.30;29.67;;;;;;;-0.47;89.18;99378.34;5028924;28;20072;-65
2022/12/10 08:39:37;;;;;;;71.13;30.67;;;;;;;-0.47;88.40;99372.38;5032590;28;20056;-65
2022/12/10 08:42:03;;;;;;;68.70;30.02;;;;;;;-0.43;89.57;99364.84;5034948;28;20036;-65
2022/12/10 08:44:28;;;;;;;73.40;32.47;;;;;;;-0.57;88.67;99368.78;5033758;28;20024;-67
2022/12/10 08:46:54;;;;;;;74.10;32.65;;;;;;;-0.61;89.01;99361.97;5033646;28;20037;-64
2022/12/10 08:49:19;;;;;;;79.57;33.08;;;;;;;-0.53;88.63;99368.91;5039880;28;20037;-65
2022/12/10 08:51:46;;;;;;;90.35;36.72;;;;;;;-0.66;88.50;99364.41;5036828;28;20312;-64
2022/12/10 08:54:12;;;;;;;80.78;32.67;;;;;;;-0.68;89.17;99368.63;5032860;28;20021;-65
2022/12/10 08:56:39;;;;;;;88.03;37.17;;;;;;;-0.70;90.33;99366.06;5025072;28;20067;-66
2022/12/10 08:59:05;;;;;;;88.18;34.90;;;;;;;-0.58;89.13;99367.09;5027644;28;20286;-66
2022/12/10 09:01:31;;;;;;;95.32;37.42;;;;;;;-1.02;89.81;99329.84;5044900;28;20067;-66
2022/12/10 09:03:56;;;;;;;98.53;36.60;;;;;;;-0.82;89.77;99363.25;5026794;28;20030;-65
2022/12/10 09:06:24;;;;;;;100.32;38.60;;;;;;;-0.96;91.26;99363.00;5038509;28;20100;-66
2022/12/10 09:08:50;;;;;;;98.75;36.95;;;;;;;-1.02;91.62;99351.88;5034956;28;20025;-65
2022/12/10 09:11:24;;;;;;;108.85;38.45;;;;;;;-0.82;90.74;99364.97;5024941;28;20099;-66
2022/12/10 09:13:50;;;;;;;92.45;37.78;;;;;;;-0.86;90.49;99351.31;5030913;28;20165;-66
2022/12/10 09:16:16;;;;;;;95.50;39.20;;;;;;;-0.84;91.26;99364.06;5035297;28;20314;-67
2022/12/10 09:18:42;;;;;;;102.68;39.17;;;;;;;-0.91;92.50;99358.88;5038740;28;20041;-66
2022/12/10 09:21:09;;;;;;;105.82;40.90;;;;;;;-0.88;91.57;99361.47;5035468;28;20314;-67
2022/12/10 09:23:35;;;;;;;103.03;39.22;;;;;;;-1.13;92.09;99365.19;5029890;28;20029;-66
2022/12/10 09:26:05;;;;;;;104.18;39.28;;;;;;;-1.25;92.63;99347.19;5033701;28;20034;-67
2022/12/10 09:28:31;;;;;;;109.22;41.72;;;;;;;-1.14;92.98;99355.00;5033494;28;20145;-67
2022/12/10 09:30:58;;;;;;;106.93;40.83;;;;;;;-1.05;93.28;99358.59;5025236;28;20038;-67
2022/12/10 09:33:25;;;;;;;121.22;43.67;;;;;;;-1.07;93.28;99355.16;5026446;28;20062;-66
2022/12/10 09:35:51;;;;;;;122.82;41.30;;;;;;;-1.17;93.62;99349.88;5029341;28;20041;-66
2022/12/10 09:38:16;;;;;;;103.95;41.58;;;;;;;-1.02;93.72;99349.31;5040132;28;20025;-67
2022/12/10 09:41:04;;;;;;;112.32;40.55;;;;;;;-1.26;93.56;99338.69;5031146;28;20040;-67
2022/12/10 09:43:35;;;;;;;127.85;42.90;;;;;;;-1.05;94.08;99347.56;5036196;28;20028;-68
2022/12/10 09:46:16;;;;;;;117.60;45.45;;;;;;;-0.90;93.84;99345.34;5031267;28;20281;-66
2022/12/10 09:48:51;;;;;;;125.18;45.55;;;;;;;-0.96;93.58;99346.91;5031472;28;20215;-66
2022/12/10 09:51:23;;;;;;;129.55;46.28;;;;;;;-1.12;93.13;99322.88;5036319;28;20018;-66
2022/12/10 09:53:57;;;;;;;144.77;48.60;;;;;;;-1.28;93.97;99334.41;5032515;28;20025;-66
2022/12/10 09:56:26;;;;;;;138.25;48.88;;;;;;;-1.10;94.19;99347.50;5033051;28;20029;-65
2022/12/10 09:58:52;;;;;;;128.90;47.17;;;;;;;-0.94;93.89;99345.22;5034539;28;20075;-67
2022/12/10 10:01:23;;;;;;;123.63;44.70;;;;;;;-0.83;92.89;99327.66;5033537;28;20028;-66
2022/12/10 10:03:48;;;;;;;137.63;47.72;;;;;;;-0.90;93.85;99345.34;5031387;28;20037;-64
2022/12/10 10:06:14;;;;;;;136.38;47.42;;;;;;;-0.99;93.09;99352.78;5034082;28;20025;-66
2022/12/10 10:08:42;;;;;;;136.32;45.67;;;;;;;-1.02;94.04;99341.72;5036387;28;20034;-66
2022/12/10 10:11:20;;;;;;;158.50;48.72;;;;;;;-1.01;94.58;99344.28;5026957;28;20041;-65
2022/12/10 10:13:51;;;;;;;149.35;47.15;;;;;;;-1.22;95.04;99329.44;5023768;28;20022;-64
2022/12/10 10:16:26;;;;;;;147.07;49.83;;;;;;;-1.15;95.37;99325.38;5023722;28;20117;-66
2022/12/10 10:19:01;;;;;;;135.90;45.13;;;;;;;-1.17;96.22;99337.16;5026931;28;20033;-67
2022/12/10 10:21:38;;;;;;;130.23;47.28;;;;;;;-1.18;95.30;99322.72;5029411;28;20075;-64
2022/12/10 10:24:05;;;;;;;159.57;49.17;;;;;;;-1.13;95.33;99328.78;5033643;28;20017;-66
2022/12/10 10:26:31;;;;;;;137.07;46.65;;;;;;;-1.20;95.82;99330.31;5033390;28;20029;-68
2022/12/10 10:29:00;;;;;;;125.88;45.72;;;;;;;-0.98;95.44;99323.13;5032583;28;20128;-66
2022/12/10 10:31:31;;;;;;;141.02;47.28;;;;;;;-1.11;94.97;99311.88;5031165;28;20080;-67
2022/12/10 10:34:00;;;;;;;130.68;45.33;;;;;;;-0.96;94.20;99332.50;5031444;28;20044;-67
2022/12/10 10:36:32;;;;;;;131.85;46.35;;;;;;;-0.86;94.33;99336.06;5027846;28;20033;-68
2022/12/10 10:39:19;;;;;;;134.90;45.55;;;;;;;-0.81;94.07;99325.97;5031872;28;20080;-66
2022/12/10 10:41:50;;;;;;;124.40;43.60;;;;;;;-0.80;94.06;99325.16;5028884;28;20030;-68
2022/12/10 10:44:21;;;;;;;129.00;43.75;;;;;;;-1.28;95.42;99311.56;5029630;28;20036;-65
2022/12/10 10:46:50;;;;;;;124.45;39.55;;;;;;;-1.26;95.54;99297.19;5048361;28;20033;-67
2022/12/10 10:49:27;;;;;;;117.53;43.33;;;;;;;-1.40;95.93;99285.09;5031192;28;20237;-66
2022/12/10 10:51:58;;;;;;;124.80;43.55;;;;;;;-1.27;96.58;99285.31;5031387;28;20033;-67
2022/12/10 10:54:50;;;;;;;132.40;44.58;;;;;;;-1.09;96.61;99306.00;5036606;28;20028;-65
2022/12/10 10:57:29;;;;;;;;;;;;;;;-1.11;96.38;99294.06;5037236;28;20049;-66
2022/12/10 11:00:04;;;;;;;123.25;42.70;;;;;;;-0.99;95.54;99283.31;5031061;28;20189;-66
2022/12/10 11:02:36;;;;;;;142.82;45.65;;;;;;;-1.01;95.67;99262.97;5030901;28;20053;-64
2022/12/10 11:05:08;;;;;;;130.15;43.30;;;;;;;-1.07;95.89;99257.75;5030896;28;20082;-66
2022/12/10 11:07:39;;;;;;;108.38;40.08;;;;;;;-1.15;95.60;99251.69;5030474;28;20036;-66
2022/12/10 11:10:19;;;;;;;117.20;39.53;;;;;;;-1.21;97.14;99277.81;5017539;28;20042;-66
2022/12/10 11:12:55;;;;;;;126.13;42.10;;;;;;;-1.03;96.85;99251.03;5028432;28;20049;-68
2022/12/10 11:15:23;;;;;;;120.43;42.05;;;;;;;-1.17;96.46;99276.19;5031788;28;20041;-66
2022/12/10 11:17:51;;;;;;;121.80;42.63;;;;;;;-1.16;96.75;99255.03;5030462;28;20038;-67
2022/12/10 11:20:21;;;;;;;121.35;42.05;;;;;;;-1.07;96.73;99255.19;5031815;28;20068;-65
2022/12/10 11:22:59;;;;;;;122.35;41.75;;;;;;;-0.89;95.97;99273.31;5032283;28;20573;-66
2022/12/10 11:25:34;;;;;;;123.75;41.25;;;;;;;-0.87;95.79;99265.72;5037097;28;20076;-66
2022/12/10 11:28:32;;;;;;;127.95;42.35;;;;;;;-1.17;97.18;99235.53;5027558;28;20092;-66
2022/12/10 11:31:38;;;;;;;116.28;39.55;;;;;;;-1.06;96.35;99245.06;5025185;28;20038;-68